^^
Datos históricos de la estación: Murcia-Puente Tocinos
Diario Informe para Enero 11, 2019 Unidades:  Ambas    Ingés   Métrico
Diario Semanal Mensual Anual
  Máxima: Mínima: Promedio:
Temperatura: 88.9 °F /  31.6 °C 69.4 °F /  20.8 °C 76.3 °F /  24.6 °C
Punto de rocio: 60.6 °F /  15.9 °C 50.2 °F /  10.1 °C 55.6 °F /  13.1 °C
Humedad: 65.1% 26.6% 50%
Velocidad viento: 16.8mph /  27km/h - 6.5mph /  10.5km/h
Racha viento: 28mph /  45.1km/h - -
Viento- - SSE
Presión: 30.1 in /  1020.2 hPa 29.9 in /  1013.3 hPa -
Precipitación: 0 in /  0.0 mm    
 
 
Tabla de datos para Enero 11, 2019
Hora Temperatura Punto de rocio Presión Viento Velocidad viento Racha viento Humedad Intensidad lluvia(por hora) Nubes
00:04 76.5 °F /  24.7 °C 56.5 °F /  13.6 °C 29.9in /  1013.4hPa SO 3.1mph /  5km/h 7mph /  11.3km/h 50% 0in /  0.0mm
00:09 76.5 °F /  24.7 °C 56.3 °F /  13.5 °C 29.9in /  1013.4hPa SO 3.4mph /  5.5km/h 7mph /  11.3km/h 49.9% 0in /  0.0mm
00:14 76.5 °F /  24.7 °C 55.9 °F /  13.3 °C 29.9in /  1013.4hPa SO 4.3mph /  6.9km/h 6.9mph /  11.1km/h 49% 0in /  0.0mm
00:19 76.5 °F /  24.7 °C 55.9 °F /  13.3 °C 29.9in /  1013.4hPa SSO 4.2mph /  6.8km/h 7mph /  11.3km/h 49% 0in /  0.0mm
00:24 76.5 °F /  24.7 °C 56.1 °F /  13.4 °C 29.9in /  1013.4hPa Sur 4mph /  6.5km/h 7mph /  11.3km/h 49.3% 0in /  0.0mm
00:29 76.5 °F /  24.7 °C 56.8 °F /  13.8 °C 29.9in /  1013.4hPa ENE 3.2mph /  5.2km/h 4.6mph /  7.4km/h 50.7% 0in /  0.0mm
00:34 76.1 °F /  24.5 °C 56.8 °F /  13.8 °C 29.9in /  1013.4hPa ENE 1.8mph /  2.9km/h 5mph /  8km/h 51.1% 0in /  0.0mm
00:39 75.7 °F /  24.3 °C 57 °F /  13.9 °C 29.9in /  1013.3hPa ENE 1.8mph /  2.9km/h 3.6mph /  5.8km/h 52.2% 0in /  0.0mm
00:44 75.4 °F /  24.1 °C 57.6 °F /  14.2 °C 29.9in /  1013.3hPa ENE 1.8mph /  2.9km/h 4.6mph /  7.4km/h 53.7% 0in /  0.0mm
00:49 74.8 °F /  23.8 °C 57.7 °F /  14.3 °C 29.9in /  1013.5hPa NE 1.9mph /  3km/h 5mph /  8km/h 55% 0in /  0.0mm
00:54 74.5 °F /  23.6 °C 57.7 °F /  14.3 °C 29.9in /  1013.5hPa NE 2mph /  3.2km/h 4mph /  6.4km/h 56% 0in /  0.0mm
00:59 73.9 °F /  23.3 °C 57.6 °F /  14.2 °C 29.9in /  1013.5hPa ENE 2mph /  3.2km/h 5mph /  8km/h 56.7% 0in /  0.0mm
01:04 73.8 °F /  23.2 °C 57.6 °F /  14.2 °C 29.9in /  1013.5hPa ENE 2mph /  3.2km/h 5mph /  8km/h 57% 0in /  0.0mm
01:09 73.6 °F /  23.1 °C 57.4 °F /  14.1 °C 29.9in /  1013.4hPa ENE 1.4mph /  2.2km/h 3mph /  4.8km/h 57% 0in /  0.0mm
01:14 73.6 °F /  23.1 °C 57.4 °F /  14.1 °C 29.9in /  1013.4hPa Calm   2.3mph /  3.7km/h 57% 0in /  0.0mm
01:19 73.6 °F /  23.1 °C 57.7 °F /  14.3 °C 29.9in /  1013.5hPa Calm   2mph /  3.2km/h 57.8% 0in /  0.0mm
01:24 73.6 °F /  23.1 °C 57.7 °F /  14.3 °C 29.9in /  1013.5hPa Calm     57.6% 0in /  0.0mm
01:29 73.6 °F /  23.1 °C 57.4 °F /  14.1 °C 29.9in /  1013.5hPa Calm     57% 0in /  0.0mm
01:34 73.6 °F /  23.1 °C 57.6 °F /  14.2 °C 29.9in /  1013.6hPa Calm     57.7% 0in /  0.0mm
01:39 73.4 °F /  23 °C 57.4 °F /  14.1 °C 29.9in /  1013.6hPa Calm   4.6mph /  7.4km/h 57.5% 0in /  0.0mm
01:44 73.4 °F /  23 °C 57.2 °F /  14 °C 29.9in /  1013.6hPa Calm   5mph /  8km/h 57.1% 0in /  0.0mm
01:49 73.2 °F /  22.9 °C 57.4 °F /  14.1 °C 29.9in /  1013.6hPa SSE 0.4mph /  0.7km/h 4mph /  6.4km/h 57.7% 0in /  0.0mm
01:54 73 °F /  22.8 °C 57 °F /  13.9 °C 29.9in /  1013.6hPa Sur 1.4mph /  2.2km/h 5.4mph /  8.7km/h 57% 0in /  0.0mm
01:59 72.9 °F /  22.7 °C 57.2 °F /  14 °C 29.9in /  1013.6hPa SSE 2.4mph /  3.8km/h 7.6mph /  12.2km/h 57.6% 0in /  0.0mm
02:04 72.9 °F /  22.7 °C 57 °F /  13.9 °C 29.9in /  1013.6hPa Sur 3.6mph /  5.8km/h 8.1mph /  13km/h 58% 0in /  0.0mm
02:09 72.5 °F /  22.5 °C 56.8 °F /  13.8 °C 29.9in /  1013.6hPa SSO 3.9mph /  6.3km/h 8.1mph /  13km/h 58% 0in /  0.0mm
02:14 72.3 °F /  22.4 °C 56.7 °F /  13.7 °C 29.9in /  1013.6hPa SSO 4.7mph /  7.6km/h 8.1mph /  13km/h 58% 0in /  0.0mm
02:19 72.3 °F /  22.4 °C 56.7 °F /  13.7 °C 29.9in /  1013.6hPa SSO 4.8mph /  7.8km/h 8.1mph /  13km/h 58% 0in /  0.0mm
02:24 72.3 °F /  22.4 °C 56.7 °F /  13.7 °C 29.9in /  1013.6hPa SSO 5.2mph /  8.4km/h 8mph /  12.9km/h 58% 0in /  0.0mm
02:29 72.3 °F /  22.4 °C 56.7 °F /  13.7 °C 29.9in /  1013.6hPa SSO 5.2mph /  8.4km/h 7.4mph /  11.9km/h 58% 0in /  0.0mm
02:34 72.5 °F /  22.5 °C 56.8 °F /  13.8 °C 29.9in /  1013.6hPa SSO 5.2mph /  8.4km/h 7mph /  11.3km/h 58% 0in /  0.0mm
02:39 72.7 °F /  22.6 °C 57 °F /  13.9 °C 29.9in /  1013.5hPa SSO 4.8mph /  7.8km/h 6.2mph /  10km/h 58% 0in /  0.0mm
02:44 72.7 °F /  22.6 °C 56.8 °F /  13.8 °C 29.9in /  1013.5hPa SSO 4mph /  6.5km/h 6.4mph /  10.3km/h 57.5% 0in /  0.0mm
02:49 72.7 °F /  22.6 °C 56.8 °F /  13.8 °C 29.9in /  1013.5hPa SSO 4.1mph /  6.6km/h 7mph /  11.3km/h 57.8% 0in /  0.0mm
02:54 72.7 °F /  22.6 °C 57 °F /  13.9 °C 29.9in /  1013.5hPa SSO 4.3mph /  6.9km/h 7.4mph /  11.9km/h 58% 0in /  0.0mm
02:59 72.7 °F /  22.6 °C 57 °F /  13.9 °C 29.9in /  1013.5hPa SSO 4.5mph /  7.2km/h 8.1mph /  13km/h 58% 0in /  0.0mm
03:04 72.7 °F /  22.6 °C 57 °F /  13.9 °C 29.9in /  1013.5hPa SSO 4.7mph /  7.6km/h 8mph /  12.9km/h 58% 0in /  0.0mm
03:09 72.7 °F /  22.6 °C 57 °F /  13.9 °C 29.9in /  1013.5hPa SO 4.5mph /  7.2km/h 7.4mph /  11.9km/h 58% 0in /  0.0mm
03:14 72.7 °F /  22.6 °C 57 °F /  13.9 °C 29.9in /  1013.5hPa SO 4mph /  6.5km/h 8.1mph /  13km/h 58% 0in /  0.0mm
03:19 72.7 °F /  22.6 °C 57 °F /  13.9 °C 29.9in /  1013.5hPa SSO 4.4mph /  7.1km/h 8.1mph /  13km/h 58% 0in /  0.0mm
03:24 72.7 °F /  22.6 °C 57 °F /  13.9 °C 29.9in /  1013.5hPa SSO 5.2mph /  8.4km/h 9.2mph /  14.8km/h 58% 0in /  0.0mm
03:29 72.7 °F /  22.6 °C 57 °F /  13.9 °C 29.9in /  1013.5hPa SO 5mph /  8.1km/h 9mph /  14.5km/h 58% 0in /  0.0mm
03:34 72.7 °F /  22.6 °C 57 °F /  13.9 °C 29.9in /  1013.6hPa SO 4.7mph /  7.6km/h 8.1mph /  13km/h 58% 0in /  0.0mm
03:39 72.5 °F /  22.5 °C 57.2 °F /  14 °C 29.9in /  1013.6hPa OSO 4.7mph /  7.6km/h 8mph /  12.9km/h 58.6% 0in /  0.0mm
03:44 72.5 °F /  22.5 °C 57.4 °F /  14.1 °C 29.9in /  1013.6hPa OSO 4.7mph /  7.6km/h 6.9mph /  11.1km/h 59% 0in /  0.0mm
03:49 72.3 °F /  22.4 °C 57.2 °F /  14 °C 29.9in /  1013.6hPa OSO 4.2mph /  6.7km/h 7mph /  11.3km/h 59% 0in /  0.0mm
03:54 72.3 °F /  22.4 °C 57.2 °F /  14 °C 29.9in /  1013.6hPa OSO 3.1mph /  5km/h 5mph /  8km/h 59% 0in /  0.0mm
03:59 72.1 °F /  22.3 °C 57.2 °F /  14 °C 29.9in /  1013.6hPa OSO 2.6mph /  4.2km/h 5mph /  8km/h 59% 0in /  0.0mm
04:04 72.1 °F /  22.3 °C 57.4 °F /  14.1 °C 29.9in /  1013.6hPa OSO 2mph /  3.2km/h 4mph /  6.4km/h 59.9% 0in /  0.0mm
04:09 72.1 °F /  22.3 °C 57.6 °F /  14.2 °C 29.9in /  1013.6hPa OSO 1.4mph /  2.2km/h 2.3mph /  3.7km/h 60% 0in /  0.0mm
04:14 72 °F /  22.2 °C 57.2 °F /  14 °C 29.9in /  1013.6hPa Calm   2.9mph /  4.7km/h 60% 0in /  0.0mm
04:19 71.6 °F /  22 °C 57.4 °F /  14.1 °C 29.9in /  1013.8hPa Calm   3.1mph /  5km/h 60.7% 0in /  0.0mm
04:24 71.2 °F /  21.8 °C 57.4 °F /  14.1 °C 29.9in /  1013.8hPa Calm   3.5mph /  5.6km/h 61.3% 0in /  0.0mm
04:29 70.9 °F /  21.6 °C 57.4 °F /  14.1 °C 29.9in /  1013.8hPa NNO 0.4mph /  0.7km/h 3.5mph /  5.6km/h 62.3% 0in /  0.0mm
04:34 70.5 °F /  21.4 °C 57.4 °F /  14.1 °C 29.9in /  1013.8hPa NNO 1.4mph /  2.2km/h 3mph /  4.8km/h 63.2% 0in /  0.0mm
04:39 70.2 °F /  21.2 °C 57.4 °F /  14.1 °C 29.9in /  1013.8hPa NNO 0.9mph /  1.5km/h 2mph /  3.2km/h 64% 0in /  0.0mm
04:44 69.8 °F /  21 °C 57.4 °F /  14.1 °C 29.9in /  1013.8hPa Calm     64.5% 0in /  0.0mm
04:49 69.6 °F /  20.9 °C 57.4 °F /  14.1 °C 29.9in /  1013.8hPa Calm   3.5mph /  5.6km/h 65% 0in /  0.0mm
04:54 69.6 °F /  20.9 °C 57.4 °F /  14.1 °C 29.9in /  1013.8hPa Calm   3mph /  4.8km/h 65% 0in /  0.0mm
04:59 69.4 °F /  20.8 °C 57.4 °F /  14.1 °C 29.9in /  1013.8hPa Oeste 0.6mph /  1km/h 4.6mph /  7.4km/h 65.1% 0in /  0.0mm
05:04 69.4 °F /  20.8 °C 57.2 °F /  14 °C 29.9in /  1013.9hPa Oeste 1.4mph /  2.2km/h 5.2mph /  8.4km/h 65% 0in /  0.0mm
05:09 69.4 °F /  20.8 °C 57.2 °F /  14 °C 29.9in /  1013.9hPa SO 1.9mph /  3km/h 6.2mph /  10km/h 65.1% 0in /  0.0mm
05:14 69.6 °F /  20.9 °C 56.7 °F /  13.7 °C 29.9in /  1013.9hPa SSO 2.9mph /  4.6km/h 11.2mph /  18km/h 63.2% 0in /  0.0mm
05:19 70.7 °F /  21.5 °C 56.3 °F /  13.5 °C 29.9in /  1013.9hPa SO 3.9mph /  6.3km/h 12mph /  19.3km/h 60.2% 0in /  0.0mm
05:24 71.4 °F /  21.9 °C 56.1 °F /  13.4 °C 29.9in /  1013.7hPa SSO 6.2mph /  10km/h 10.4mph /  16.7km/h 58.4% 0in /  0.0mm
05:29 72 °F /  22.2 °C 55.9 °F /  13.3 °C 29.9in /  1013.7hPa SSO 6.4mph /  10.3km/h 10mph /  16.1km/h 57.1% 0in /  0.0mm
05:34 72 °F /  22.2 °C 55.9 °F /  13.3 °C 29.9in /  1013.7hPa SSO 6.9mph /  11.1km/h 9mph /  14.5km/h 57% 0in /  0.0mm
05:39 72 °F /  22.2 °C 55.9 °F /  13.3 °C 29.9in /  1013.7hPa SSO 6.6mph /  10.6km/h 9mph /  14.5km/h 57% 0in /  0.0mm
05:44 72 °F /  22.2 °C 55.9 °F /  13.3 °C 29.9in /  1013.7hPa SO 5.9mph /  9.5km/h 8mph /  12.9km/h 57% 0in /  0.0mm
05:49 72 °F /  22.2 °C 55.6 °F /  13.1 °C 29.9in /  1013.8hPa SO 5.3mph /  8.5km/h 7mph /  11.3km/h 56.5% 0in /  0.0mm
05:54 72.1 °F /  22.3 °C 55.6 °F /  13.1 °C 29.9in /  1013.8hPa SO 4mph /  6.5km/h 7.6mph /  12.2km/h 56% 0in /  0.0mm
05:59 72.1 °F /  22.3 °C 55.6 °F /  13.1 °C 29.9in /  1013.8hPa SO 4.3mph /  6.9km/h 8.1mph /  13km/h 56% 0in /  0.0mm
06:04 72.1 °F /  22.3 °C 55.6 °F /  13.1 °C 29.9in /  1014.0hPa SO 4.7mph /  7.6km/h 8.1mph /  13km/h 56% 0in /  0.0mm
06:09 72.1 °F /  22.3 °C 55.2 °F /  12.9 °C 29.9in /  1014.0hPa SSO 4.8mph /  7.8km/h 8.1mph /  13km/h 55.3% 0in /  0.0mm
06:14 72.3 °F /  22.4 °C 55.2 °F /  12.9 °C 29.9in /  1014.0hPa SSO 5.2mph /  8.4km/h 9.7mph /  15.6km/h 55% 0in /  0.0mm
06:19 72.3 °F /  22.4 °C 54.9 °F /  12.7 °C 30in /  1014.2hPa SSO 5.3mph /  8.5km/h 10mph /  16.1km/h 54.4% 0in /  0.0mm
06:24 72.5 °F /  22.5 °C 55 °F /  12.8 °C 30in /  1014.2hPa SSO 5.4mph /  8.7km/h 10.4mph /  16.7km/h 54% 0in /  0.0mm
06:29 72.7 °F /  22.6 °C 54.9 °F /  12.7 °C 30in /  1014.2hPa SSO 5.6mph /  9km/h 10mph /  16.1km/h 53.6% 0in /  0.0mm
06:34 72.9 °F /  22.7 °C 54.7 °F /  12.6 °C 30in /  1014.4hPa SSO 5.9mph /  9.5km/h 10mph /  16.1km/h 53% 0in /  0.0mm
06:39 72.9 °F /  22.7 °C 54.7 °F /  12.6 °C 30in /  1014.4hPa SSO 5.9mph /  9.5km/h 9.7mph /  15.6km/h 53% 0in /  0.0mm
06:44 72.9 °F /  22.7 °C 54.5 °F /  12.5 °C 30in /  1014.4hPa SSO 5.9mph /  9.5km/h 10mph /  16.1km/h 52.7% 0in /  0.0mm
06:49 73 °F /  22.8 °C 54.3 °F /  12.4 °C 30in /  1014.6hPa SSO 5.7mph /  9.1km/h 9mph /  14.5km/h 52% 0in /  0.0mm
06:54 73 °F /  22.8 °C 54.5 °F /  12.5 °C 30in /  1014.6hPa SO 5.2mph /  8.4km/h 7mph /  11.3km/h 52% 0in /  0.0mm
06:59 73 °F /  22.8 °C 54.5 °F /  12.5 °C 30in /  1014.6hPa OSO 4.3mph /  6.9km/h 6.9mph /  11.1km/h 52% 0in /  0.0mm
07:04 73 °F /  22.8 °C 54.3 °F /  12.4 °C 30in /  1014.8hPa SO 3.1mph /  5km/h 7mph /  11.3km/h 52% 0in /  0.0mm
07:09 73 °F /  22.8 °C 54.7 °F /  12.6 °C 30in /  1014.8hPa SO 3.5mph /  5.6km/h 9.2mph /  14.8km/h 52.7% 0in /  0.0mm
07:14 72.9 °F /  22.7 °C 54.7 °F /  12.6 °C 30in /  1014.8hPa SO 4.3mph /  6.9km/h 9.7mph /  15.6km/h 53% 0in /  0.0mm
07:19 72.9 °F /  22.7 °C 54.3 °F /  12.4 °C 30in /  1015.0hPa SO 5mph /  8km/h 10.4mph /  16.7km/h 52.4% 0in /  0.0mm
07:24 72.9 °F /  22.7 °C 54.1 °F /  12.3 °C 30in /  1015.0hPa SO 6.4mph /  10.3km/h 10.7mph /  17.2km/h 52% 0in /  0.0mm
07:29 72.7 °F /  22.6 °C 54 °F /  12.2 °C 30in /  1015.0hPa SO 6.6mph /  10.6km/h 11mph /  17.7km/h 52% 0in /  0.0mm
07:34 72.7 °F /  22.6 °C 54 °F /  12.2 °C 30in /  1015.1hPa SO 6.9mph /  11.1km/h 12.3mph /  19.8km/h 52% 0in /  0.0mm
07:39 72.7 °F /  22.6 °C 54 °F /  12.2 °C 30in /  1015.1hPa SO 6.6mph /  10.7km/h 12mph /  19.3km/h 52% 0in /  0.0mm
07:44 72.7 °F /  22.6 °C 54.1 °F /  12.3 °C 30in /  1015.1hPa SO 6.2mph /  10km/h 11.5mph /  18.5km/h 52.4% 0in /  0.0mm
07:49 72.7 °F /  22.6 °C 54.7 °F /  12.6 °C 30in /  1015.3hPa SO 6.3mph /  10.1km/h 12mph /  19.3km/h 53% 0in /  0.0mm
07:54 72.7 °F /  22.6 °C 54.7 °F /  12.6 °C 30in /  1015.3hPa SO 6.4mph /  10.3km/h 10mph /  16.1km/h 53% 0in /  0.0mm
07:59 72.7 °F /  22.6 °C 54.5 °F /  12.5 °C 30in /  1015.3hPa SSO 6.4mph /  10.3km/h 10mph /  16.1km/h 53% 0in /  0.0mm
08:04 72.7 °F /  22.6 °C 54.7 °F /  12.6 °C 30in /  1015.5hPa SO 6.4mph /  10.3km/h 10.4mph /  16.7km/h 53% 0in /  0.0mm
08:09 72.9 °F /  22.7 °C 54.7 °F /  12.6 °C 30in /  1015.5hPa SO 6.6mph /  10.6km/h 11.8mph /  19km/h 53% 0in /  0.0mm
08:14 73 °F /  22.8 °C 54.7 °F /  12.6 °C 30in /  1015.5hPa SO 6.9mph /  11.1km/h 12mph /  19.3km/h 52.8% 0in /  0.0mm
08:19 73.2 °F /  22.9 °C 54.5 °F /  12.5 °C 30in /  1015.6hPa SSO 6.4mph /  10.3km/h 10.4mph /  16.7km/h 52.2% 0in /  0.0mm
08:24 73.4 °F /  23 °C 54.7 °F /  12.6 °C 30in /  1015.6hPa SSO 5.4mph /  8.7km/h 10mph /  16.1km/h 52% 0in /  0.0mm
08:29 73.6 °F /  23.1 °C 54.9 °F /  12.7 °C 30in /  1015.6hPa SSO 5.7mph /  9.2km/h 10mph /  16.1km/h 52% 0in /  0.0mm
08:34 73.8 °F /  23.2 °C 54.7 °F /  12.6 °C 30in /  1015.7hPa SO 6.4mph /  10.3km/h 11.8mph /  19km/h 51.3% 0in /  0.0mm
08:39 73.9 °F /  23.3 °C 54.7 °F /  12.6 °C 30in /  1015.7hPa SSO 6.4mph /  10.3km/h 12mph /  19.3km/h 51% 0in /  0.0mm
08:44 74.1 °F /  23.4 °C 54.9 °F /  12.7 °C 30in /  1015.7hPa SO 6.4mph /  10.3km/h 10.7mph /  17.2km/h 51% 0in /  0.0mm
08:49 74.5 °F /  23.6 °C 54.9 °F /  12.7 °C 30in /  1015.7hPa SO 6.2mph /  10km/h 11mph /  17.7km/h 50.2% 0in /  0.0mm
08:54 74.7 °F /  23.7 °C 54.9 °F /  12.7 °C 30in /  1015.7hPa SO 5.9mph /  9.5km/h 11.2mph /  18km/h 50% 0in /  0.0mm
08:59 74.8 °F /  23.8 °C 54.9 °F /  12.7 °C 30in /  1015.7hPa SO 6.1mph /  9.8km/h 11.2mph /  18km/h 50% 0in /  0.0mm
09:04 75 °F /  23.9 °C 54.9 °F /  12.7 °C 30in /  1015.9hPa OSO 6.4mph /  10.3km/h 12mph /  19.3km/h 49.5% 0in /  0.0mm
09:09 75.2 °F /  24 °C 54.7 °F /  12.6 °C 30in /  1015.9hPa OSO 6.7mph /  10.8km/h 16.1mph /  25.9km/h 49% 0in /  0.0mm
09:14 75.4 °F /  24.1 °C 54.9 °F /  12.7 °C 30in /  1015.9hPa OSO 7.4mph /  11.9km/h 16mph /  25.7km/h 49% 0in /  0.0mm
09:19 75.4 °F /  24.1 °C 54.9 °F /  12.7 °C 30in /  1015.9hPa OSO 7.8mph /  12.6km/h 18.4mph /  29.6km/h 49% 0in /  0.0mm
09:24 75.4 °F /  24.1 °C 55 °F /  12.8 °C 30in /  1015.9hPa OSO 8.7mph /  14km/h 18mph /  29km/h 49.2% 0in /  0.0mm
09:29 75.6 °F /  24.2 °C 55 °F /  12.8 °C 30in /  1015.9hPa OSO 8.6mph /  13.9km/h 16.3mph /  26.2km/h 49.1% 0in /  0.0mm
09:34 75.6 °F /  24.2 °C 55 °F /  12.8 °C 30in /  1016.0hPa Oeste 8.5mph /  13.7km/h 16.1mph /  25.9km/h 49% 0in /  0.0mm
09:39 75.7 °F /  24.3 °C 55.6 °F /  13.1 °C 30in /  1016.0hPa OSO 8.5mph /  13.7km/h 14mph /  22.5km/h 49.5% 0in /  0.0mm
09:44 75.9 °F /  24.4 °C 55.4 °F /  13 °C 30in /  1016.0hPa OSO 8.5mph /  13.7km/h 17.3mph /  27.8km/h 49% 0in /  0.0mm
09:49 76.1 °F /  24.5 °C 55.6 °F /  13.1 °C 30in /  1016.0hPa OSO 8.7mph /  14km/h 17.5mph /  28.2km/h 49% 0in /  0.0mm
09:54 76.5 °F /  24.7 °C 55.8 °F /  13.2 °C 30in /  1016.0hPa OSO 9.2mph /  14.8km/h 17mph /  27.4km/h 48.9% 0in /  0.0mm
09:59 76.6 °F /  24.8 °C 55.6 °F /  13.1 °C 30in /  1016.0hPa OSO 9.2mph /  14.8km/h 14mph /  22.5km/h 48% 0in /  0.0mm
10:04 77.2 °F /  25.1 °C 55.4 °F /  13 °C 30in /  1016.1hPa OSO 9.2mph /  14.8km/h 16.3mph /  26.2km/h 47% 0in /  0.0mm
10:09 77.4 °F /  25.2 °C 55.2 °F /  12.9 °C 30in /  1016.1hPa OSO 8.6mph /  13.8km/h 16.1mph /  25.9km/h 46.3% 0in /  0.0mm
10:14 77.5 °F /  25.3 °C 55 °F /  12.8 °C 30in /  1016.1hPa Oeste 7.4mph /  11.9km/h 16mph /  25.7km/h 46% 0in /  0.0mm
10:19 77.5 °F /  25.3 °C 54.9 °F /  12.7 °C 30in /  1016.1hPa OSO 7.8mph /  12.6km/h 16.1mph /  25.9km/h 45.6% 0in /  0.0mm
10:24 77.5 °F /  25.3 °C 54.9 °F /  12.7 °C 30in /  1016.0hPa OSO 8.7mph /  14km/h 16.1mph /  25.9km/h 45.7% 0in /  0.0mm
10:29 77.9 °F /  25.5 °C 55 °F /  12.8 °C 30in /  1016.0hPa OSO 8.7mph /  14km/h 16mph /  25.7km/h 45.2% 0in /  0.0mm
10:34 78.1 °F /  25.6 °C 55 °F /  12.8 °C 30in /  1016.1hPa OSO 8.7mph /  14km/h 15.2mph /  24.5km/h 45% 0in /  0.0mm
10:39 78.3 °F /  25.7 °C 54.9 °F /  12.7 °C 30in /  1016.1hPa OSO 8.7mph /  14km/h 15mph /  24.1km/h 44.3% 0in /  0.0mm
10:44 78.6 °F /  25.9 °C 54.9 °F /  12.7 °C 30in /  1016.1hPa Oeste 8.7mph /  14km/h 15mph /  24.1km/h 44% 0in /  0.0mm
10:49 79.2 °F /  26.2 °C 54.7 °F /  12.6 °C 30in /  1016.1hPa Oeste 8.5mph /  13.7km/h 15mph /  24.1km/h 43% 0in /  0.0mm
10:54 79.3 °F /  26.3 °C 54.9 °F /  12.7 °C 30in /  1016.1hPa OSO 8.1mph /  13km/h 15mph /  24.1km/h 43% 0in /  0.0mm
10:59 79.5 °F /  26.4 °C 54.5 °F /  12.5 °C 30in /  1016.1hPa Oeste 7.9mph /  12.7km/h 15.2mph /  24.5km/h 42.2% 0in /  0.0mm
11:04 79.5 °F /  26.4 °C 54.3 °F /  12.4 °C 30in /  1016.1hPa Oeste 7.6mph /  12.2km/h 17.5mph /  28.2km/h 42% 0in /  0.0mm
11:09 79.5 °F /  26.4 °C 54.3 °F /  12.4 °C 30in /  1016.1hPa Oeste 8.4mph /  13.5km/h 17.3mph /  27.8km/h 41.9% 0in /  0.0mm
11:14 79.9 °F /  26.6 °C 54.7 °F /  12.6 °C 30in /  1016.1hPa Oeste 10mph /  16.1km/h 17mph /  27.4km/h 41.9% 0in /  0.0mm
11:19 80.2 °F /  26.8 °C 54.3 °F /  12.4 °C 30in /  1016.1hPa OSO 9.6mph /  15.4km/h 16.1mph /  25.9km/h 41% 0in /  0.0mm
11:24 80.4 °F /  26.9 °C 54.5 °F /  12.5 °C 30in /  1016.0hPa Oeste 8.7mph /  14km/h 15mph /  24.1km/h 41% 0in /  0.0mm
11:29 80.8 °F /  27.1 °C 54.5 °F /  12.5 °C 30in /  1016.0hPa OSO 8.6mph /  13.9km/h 15mph /  24.1km/h 40.6% 0in /  0.0mm
11:34 81 °F /  27.2 °C 54.9 °F /  12.7 °C 30in /  1016.0hPa Oeste 8.5mph /  13.7km/h 15mph /  24.1km/h 40.7% 0in /  0.0mm
11:39 81 °F /  27.2 °C 54.5 °F /  12.5 °C 30in /  1015.9hPa OSO 8.5mph /  13.7km/h 14mph /  22.5km/h 40.1% 0in /  0.0mm
11:44 81.1 °F /  27.3 °C 54.7 °F /  12.6 °C 30in /  1015.9hPa Oeste 8.5mph /  13.7km/h 14mph /  22.5km/h 40.2% 0in /  0.0mm
11:49 81.3 °F /  27.4 °C 54.9 °F /  12.7 °C 30in /  1015.9hPa OSO 8.2mph /  13.2km/h 17.3mph /  27.8km/h 40.2% 0in /  0.0mm
11:54 81.7 °F /  27.6 °C 55 °F /  12.8 °C 30in /  1015.9hPa OSO 7.6mph /  12.2km/h 17.3mph /  27.8km/h 40% 0in /  0.0mm
11:59 81.9 °F /  27.7 °C 55 °F /  12.8 °C 30in /  1015.9hPa OSO 8mph /  12.8km/h 16mph /  25.7km/h 40% 0in /  0.0mm
12:04 82.4 °F /  28 °C 55.2 °F /  12.9 °C 30in /  1015.9hPa OSO 8.5mph /  13.7km/h 15mph /  24.1km/h 39.4% 0in /  0.0mm
12:09 82.8 °F /  28.2 °C 55.2 °F /  12.9 °C 30in /  1015.7hPa OSO 7.8mph /  12.6km/h 13mph /  20.9km/h 39% 0in /  0.0mm
12:14 82.8 °F /  28.2 °C 54.9 °F /  12.7 °C 30in /  1015.7hPa OSO 6.4mph /  10.3km/h 16.8mph /  27km/h 38.5% 0in /  0.0mm
12:19 82.9 °F /  28.3 °C 54.7 °F /  12.6 °C 30in /  1015.7hPa Oeste 6.8mph /  10.9km/h 17mph /  27.4km/h 37.9% 0in /  0.0mm
12:24 82.9 °F /  28.3 °C 54.3 °F /  12.4 °C 30in /  1015.6hPa OSO 7.6mph /  12.2km/h 15.2mph /  24.5km/h 37.6% 0in /  0.0mm
12:29 82.9 °F /  28.3 °C 54 °F /  12.2 °C 30in /  1015.6hPa OSO 7.6mph /  12.2km/h 15mph /  24.1km/h 37% 0in /  0.0mm
12:34 83.1 °F /  28.4 °C 54.3 °F /  12.4 °C 30in /  1015.6hPa OSO 7.6mph /  12.2km/h 13mph /  20.9km/h 37.4% 0in /  0.0mm
12:39 83.7 °F /  28.7 °C 54.7 °F /  12.6 °C 30in /  1015.4hPa Oeste 7.4mph /  11.9km/h 13mph /  20.9km/h 37.3% 0in /  0.0mm
12:44 83.8 °F /  28.8 °C 54.5 °F /  12.5 °C 30in /  1015.4hPa OSO 6.9mph /  11.1km/h 12mph /  19.3km/h 36.6% 0in /  0.0mm
12:49 84.4 °F /  29.1 °C 53.8 °F /  12.1 °C 30in /  1015.4hPa OSO 6.2mph /  9.9km/h 14mph /  22.5km/h 35.1% 0in /  0.0mm
12:54 84.4 °F /  29.1 °C 53.2 °F /  11.8 °C 30in /  1015.2hPa OSO 4.7mph /  7.6km/h 14mph /  22.5km/h 34.5% 0in /  0.0mm
12:59 84.6 °F /  29.2 °C 52.2 °F /  11.2 °C 30in /  1015.2hPa ONO 5.7mph /  9.1km/h 15mph /  24.1km/h 32.8% 0in /  0.0mm
13:04 84.7 °F /  29.3 °C 51.6 °F /  10.9 °C 30in /  1015.2hPa ONO 6.9mph /  11.1km/h 15mph /  24.1km/h 32% 0in /  0.0mm
13:09 84.9 °F /  29.4 °C 51.8 °F /  11 °C 30in /  1015.0hPa ONO 6.6mph /  10.6km/h 15mph /  24.1km/h 32.1% 0in /  0.0mm
13:14 85.3 °F /  29.6 °C 51.8 °F /  11 °C 30in /  1015.0hPa ONO 5.9mph /  9.5km/h 12mph /  19.3km/h 31.7% 0in /  0.0mm
13:19 85.5 °F /  29.7 °C 51.8 °F /  11 °C 30in /  1015.0hPa Oeste 6.1mph /  9.8km/h 11.5mph /  18.5km/h 31.5% 0in /  0.0mm
13:24 85.8 °F /  29.9 °C 51.4 °F /  10.8 °C 30in /  1015.0hPa ONO 6.4mph /  10.3km/h 12.5mph /  20.1km/h 30.7% 0in /  0.0mm
13:29 86.2 °F /  30.1 °C 51.6 °F /  10.9 °C 30in /  1015.0hPa ONO 6.6mph /  10.6km/h 13.8mph /  22.2km/h 30.5% 0in /  0.0mm
13:34 86.2 °F /  30.1 °C 50.9 °F /  10.5 °C 30in /  1015.0hPa Oeste 6.9mph /  11.1km/h 14mph /  22.5km/h 29.8% 0in /  0.0mm
13:39 86.4 °F /  30.2 °C 51.6 °F /  10.9 °C 30in /  1014.9hPa Oeste 7.1mph /  11.4km/h 15mph /  24.1km/h 30.4% 0in /  0.0mm
13:44 86.4 °F /  30.2 °C 51.3 °F /  10.7 °C 30in /  1014.9hPa Oeste 7.4mph /  11.9km/h 15mph /  24.1km/h 30% 0in /  0.0mm
13:49 86.4 °F /  30.2 °C 52 °F /  11.1 °C 30in /  1014.9hPa Oeste 7.3mph /  11.7km/h 12mph /  19.3km/h 30.8% 0in /  0.0mm
13:54 86.5 °F /  30.3 °C 51.8 °F /  11 °C 30in /  1014.8hPa OSO 6.9mph /  11.1km/h 12mph /  19.3km/h 30.3% 0in /  0.0mm
13:59 86.7 °F /  30.4 °C 51.1 °F /  10.6 °C 30in /  1014.8hPa ONO 6.2mph /  9.9km/h 9mph /  14.5km/h 29.4% 0in /  0.0mm
14:04 87.3 °F /  30.7 °C 50.9 °F /  10.5 °C 30in /  1014.8hPa ONO 5.2mph /  8.4km/h 9mph /  14.5km/h 28.7% 0in /  0.0mm
14:09 87.6 °F /  30.9 °C 50.5 °F /  10.3 °C 30in /  1014.8hPa Oeste 4.9mph /  7.9km/h 10.4mph /  16.7km/h 28% 0in /  0.0mm
14:14 88 °F /  31.1 °C 51.3 °F /  10.7 °C 30in /  1014.8hPa ONO 4.3mph /  6.9km/h 13.5mph /  21.7km/h 28.6% 0in /  0.0mm
14:19 88 °F /  31.1 °C 51.4 °F /  10.8 °C 30in /  1014.8hPa ONO 4.7mph /  7.5km/h 14mph /  22.5km/h 28.8% 0in /  0.0mm
14:24 88 °F /  31.1 °C 50.9 °F /  10.5 °C 30in /  1014.7hPa Oeste 5.4mph /  8.7km/h 12mph /  19.3km/h 28.2% 0in /  0.0mm
14:29 88.2 °F /  31.2 °C 50.9 °F /  10.5 °C 30in /  1014.7hPa OSO 5.6mph /  9km/h 12.7mph /  20.4km/h 27.9% 0in /  0.0mm
14:34 88.2 °F /  31.2 °C 50.9 °F /  10.5 °C 30in /  1014.7hPa OSO 5.9mph /  9.5km/h 13mph /  20.9km/h 28% 0in /  0.0mm
14:39 88.3 °F /  31.3 °C 51.1 °F /  10.6 °C 30in /  1014.7hPa ONO 5.7mph /  9.2km/h 12.5mph /  20.1km/h 28% 0in /  0.0mm
14:44 88.3 °F /  31.3 °C 51.1 °F /  10.6 °C 30in /  1014.7hPa Oeste 5.4mph /  8.7km/h 13mph /  20.9km/h 28% 0in /  0.0mm
14:49 88.5 °F /  31.4 °C 50.7 °F /  10.4 °C 30in /  1014.7hPa Oeste 5.9mph /  9.5km/h 13mph /  20.9km/h 27.5% 0in /  0.0mm
14:54 88.9 °F /  31.6 °C 50.5 °F /  10.3 °C 30in /  1014.7hPa SO 6.9mph /  11.1km/h 10mph /  16.1km/h 27% 0in /  0.0mm
14:59 88.9 °F /  31.6 °C 50.5 °F /  10.3 °C 30in /  1014.7hPa SSO 6.2mph /  9.9km/h 11.2mph /  18km/h 27% 0in /  0.0mm
15:04 88.9 °F /  31.6 °C 50.2 °F /  10.1 °C 30in /  1014.7hPa Oeste 5.2mph /  8.4km/h 12mph /  19.3km/h 26.6% 0in /  0.0mm
15:09 88.7 °F /  31.5 °C 54.7 °F /  12.6 °C 30in /  1014.5hPa ONO 6.5mph /  10.5km/h 26.8mph /  43.1km/h 31.7% 0in /  0.0mm
15:14 87.1 °F /  30.6 °C 57 °F /  13.9 °C 30in /  1014.5hPa NE 9.2mph /  14.8km/h 27.6mph /  44.4km/h 36.1% 0in /  0.0mm
15:19 86.5 °F /  30.3 °C 57.9 °F /  14.4 °C 30in /  1014.6hPa NE 11.1mph /  17.8km/h 28mph /  45.1km/h 38.1% 0in /  0.0mm
15:24 86.5 °F /  30.3 °C 57.2 °F /  14 °C 30in /  1014.6hPa NE 15.2mph /  24.5km/h 22.3mph /  35.9km/h 37% 0in /  0.0mm
15:29 86.4 °F /  30.2 °C 57.6 °F /  14.2 °C 30in /  1014.6hPa ENE 14mph /  22.6km/h 22mph /  35.4km/h 37.7% 0in /  0.0mm
15:34 86.4 °F /  30.2 °C 57.4 °F /  14.1 °C 30in /  1014.7hPa NE 11.4mph /  18.4km/h 21.3mph /  34.3km/h 37.7% 0in /  0.0mm
15:39 86.2 °F /  30.1 °C 57.9 °F /  14.4 °C 30in /  1014.7hPa NE 11.7mph /  18.8km/h 21mph /  33.8km/h 38.5% 0in /  0.0mm
15:44 85.6 °F /  29.8 °C 57.9 °F /  14.4 °C 30in /  1014.7hPa NE 12.3mph /  19.8km/h 26.3mph /  42.3km/h 39% 0in /  0.0mm
15:49 84.4 °F /  29.1 °C 58.1 °F /  14.5 °C 30in /  1014.9hPa NE 13.3mph /  21.4km/h 26.5mph /  42.6km/h 41% 0in /  0.0mm
15:54 83.8 °F /  28.8 °C 58.3 °F /  14.6 °C 30in /  1014.9hPa NE 15.6mph /  25.1km/h 26mph /  41.8km/h 42% 0in /  0.0mm
15:59 83.7 °F /  28.7 °C 58.1 °F /  14.5 °C 30in /  1014.9hPa NE 14.8mph /  23.8km/h 25mph /  40.2km/h 42% 0in /  0.0mm
16:04 83.7 °F /  28.7 °C 58.1 °F /  14.5 °C 30in /  1015.0hPa NE 13.7mph /  22.1km/h 23mph /  37km/h 42.2% 0in /  0.0mm
16:09 83.1 °F /  28.4 °C 58.3 °F /  14.6 °C 30in /  1015.0hPa NE 13.7mph /  22km/h 23mph /  37km/h 43% 0in /  0.0mm
16:14 82.9 °F /  28.3 °C 59.4 °F /  15.2 °C 30in /  1015.0hPa NE 13.5mph /  21.7km/h 22.3mph /  35.9km/h 44.8% 0in /  0.0mm
16:19 82.4 °F /  28 °C 59.5 °F /  15.3 °C 30in /  1015.1hPa NE 13.5mph /  21.8km/h 22mph /  35.4km/h 46% 0in /  0.0mm
16:24 82.2 °F /  27.9 °C 59.4 °F /  15.2 °C 30in /  1015.1hPa NE 13.7mph /  22.1km/h 23mph /  37km/h 45.9% 0in /  0.0mm
16:29 82 °F /  27.8 °C 59.7 °F /  15.4 °C 30in /  1015.1hPa NE 13.5mph /  21.7km/h 23mph /  37km/h 46.5% 0in /  0.0mm
16:34 81.5 °F /  27.5 °C 60.1 °F /  15.6 °C 30in /  1015.3hPa NE 13mph /  20.9km/h 23.5mph /  37.8km/h 48.3% 0in /  0.0mm
16:39 80.8 °F /  27.1 °C 60.1 °F /  15.6 °C 30in /  1015.3hPa NE 13.7mph /  22.1km/h 25.3mph /  40.7km/h 49.6% 0in /  0.0mm
16:44 80.1 °F /  26.7 °C 59.9 °F /  15.5 °C 30in /  1015.3hPa ENE 15.2mph /  24.5km/h 25mph /  40.2km/h 50% 0in /  0.0mm
16:49 79.7 °F /  26.5 °C 59.9 °F /  15.5 °C 30in /  1015.4hPa NE 15.5mph /  25km/h 25.6mph /  41.2km/h 51% 0in /  0.0mm
16:54 79.3 °F /  26.3 °C 59.9 °F /  15.5 °C 30in /  1015.4hPa NE 16.3mph /  26.2km/h 26.5mph /  42.6km/h 51.4% 0in /  0.0mm
16:59 79.2 °F /  26.2 °C 60.4 °F /  15.8 °C 30in /  1015.4hPa NE 16.5mph /  26.6km/h 26mph /  41.8km/h 52.6% 0in /  0.0mm
17:04 79.5 °F /  26.4 °C 60.6 °F /  15.9 °C 30in /  1015.4hPa NE 16.8mph /  27km/h 24.2mph /  38.9km/h 52.4% 0in /  0.0mm
17:09 79.3 °F /  26.3 °C 60.6 °F /  15.9 °C 30in /  1015.4hPa NE 16.1mph /  25.9km/h 25.6mph /  41.2km/h 53% 0in /  0.0mm
17:14 78.8 °F /  26 °C 60.6 °F /  15.9 °C 30in /  1015.4hPa NE 14.5mph /  23.3km/h 26mph /  41.8km/h 53.8% 0in /  0.0mm
17:19 78.8 °F /  26 °C 60.4 °F /  15.8 °C 30in /  1015.5hPa NE 14.5mph /  23.3km/h 24.2mph /  38.9km/h 53.7% 0in /  0.0mm
17:24 78.4 °F /  25.8 °C 60.4 °F /  15.8 °C 30in /  1015.5hPa NE 14.5mph /  23.3km/h 24.6mph /  39.6km/h 54% 0in /  0.0mm
17:29 77.9 °F /  25.5 °C 60.3 °F /  15.7 °C 30in /  1015.5hPa NE 14.9mph /  24km/h 25mph /  40.2km/h 54.7% 0in /  0.0mm
17:34 77.5 °F /  25.3 °C 60.1 °F /  15.6 °C 30in /  1015.8hPa NE 15.9mph /  25.6km/h 26.1mph /  42km/h 55% 0in /  0.0mm
17:39 77.5 °F /  25.3 °C 60.1 °F /  15.6 °C 30in /  1015.8hPa NE 15.8mph /  25.4km/h 26mph /  41.8km/h 55% 0in /  0.0mm
17:44 77.7 °F /  25.4 °C 59.7 °F /  15.4 °C 30in /  1015.8hPa NE 15.6mph /  25.1km/h 23mph /  37km/h 54.1% 0in /  0.0mm
17:49 77.4 °F /  25.2 °C 59.4 °F /  15.2 °C 30in /  1016.1hPa NE 15.3mph /  24.6km/h 26.5mph /  42.6km/h 53.8% 0in /  0.0mm
17:54 77 °F /  25 °C 59.2 °F /  15.1 °C 30in /  1016.1hPa NE 14.5mph /  23.3km/h 26mph /  41.8km/h 54.1% 0in /  0.0mm
17:59 77.2 °F /  25.1 °C 59.2 °F /  15.1 °C 30in /  1016.1hPa ENE 13.5mph /  21.8km/h 21.9mph /  35.2km/h 54% 0in /  0.0mm
18:04 77.4 °F /  25.2 °C 59 °F /  15 °C 30in /  1016.2hPa NE 12.3mph /  19.8km/h 23mph /  37km/h 53.4% 0in /  0.0mm
18:09 77.2 °F /  25.1 °C 58.6 °F /  14.8 °C 30in /  1016.2hPa NE 12mph /  19.3km/h 23mph /  37km/h 53% 0in /  0.0mm
18:14 76.8 °F /  24.9 °C 58.5 °F /  14.7 °C 30in /  1016.2hPa NE 11.4mph /  18.4km/h 23mph /  37km/h 53.1% 0in /  0.0mm
18:19 76.8 °F /  24.9 °C 58.5 °F /  14.7 °C 30in /  1016.4hPa NE 11.4mph /  18.4km/h 21.9mph /  35.2km/h 53.4% 0in /  0.0mm
18:24 76.6 °F /  24.8 °C 58.1 °F /  14.5 °C 30in /  1016.4hPa NE 11.4mph /  18.4km/h 22mph /  35.4km/h 53% 0in /  0.0mm
18:29 76.5 °F /  24.7 °C 58.1 °F /  14.5 °C 30in /  1016.4hPa NE 11.9mph /  19.1km/h 19mph /  30.6km/h 53% 0in /  0.0mm
18:34 76.5 °F /  24.7 °C 58.3 °F /  14.6 °C 30in /  1016.7hPa ENE 13mph /  20.9km/h 19mph /  30.6km/h 53.6% 0in /  0.0mm
18:39 76.5 °F /  24.7 °C 57.7 °F /  14.3 °C 30in /  1016.7hPa ENE 11.9mph /  19.2km/h 18mph /  29km/h 52.3% 0in /  0.0mm
18:44 76.5 °F /  24.7 °C 57.7 °F /  14.3 °C 30in /  1016.7hPa NE 9.7mph /  15.6km/h 17.3mph /  27.8km/h 52.5% 0in /  0.0mm
18:49 75.9 °F /  24.4 °C 57 °F /  13.9 °C 30in /  1016.9hPa ENE 10mph /  16.1km/h 23mph /  37km/h 52% 0in /  0.0mm
18:54 75.6 °F /  24.2 °C 56.8 °F /  13.8 °C 30in /  1016.9hPa ENE 10.7mph /  17.2km/h 23mph /  37km/h 52% 0in /  0.0mm
18:59 75.6 °F /  24.2 °C 56.5 °F /  13.6 °C 30in /  1016.9hPa NE 10.3mph /  16.6km/h 18.4mph /  29.6km/h 51.6% 0in /  0.0mm
19:04 75.6 °F /  24.2 °C 56.3 °F /  13.5 °C 30in /  1016.9hPa Este 9.7mph /  15.6km/h 18mph /  29km/h 51% 0in /  0.0mm
19:09 75.6 °F /  24.2 °C 56.1 °F /  13.4 °C 30in /  1016.9hPa ENE 9.5mph /  15.3km/h 18mph /  29km/h 50.6% 0in /  0.0mm
19:14 75.6 °F /  24.2 °C 55.6 °F /  13.1 °C 30in /  1016.9hPa NE 9.2mph /  14.8km/h 19.6mph /  31.5km/h 49.9% 0in /  0.0mm
19:19 75.4 °F /  24.1 °C 55.4 °F /  13 °C 30in /  1017.0hPa NE 9.2mph /  14.8km/h 20mph /  32.2km/h 50% 0in /  0.0mm
19:24 75.4 °F /  24.1 °C 55.4 °F /  13 °C 30in /  1017.0hPa NE 9.2mph /  14.8km/h 16.1mph /  25.9km/h 50.1% 0in /  0.0mm
19:29 75.6 °F /  24.2 °C 55.6 °F /  13.1 °C 30in /  1017.0hPa NE 8.4mph /  13.6km/h 15mph /  24.1km/h 50% 0in /  0.0mm
19:34 75.6 °F /  24.2 °C 55 °F /  12.8 °C 30in /  1017.2hPa NE 6.9mph /  11.1km/h 13mph /  20.9km/h 49% 0in /  0.0mm
19:39 75.4 °F /  24.1 °C 54.9 °F /  12.7 °C 30in /  1017.2hPa ENE 7.3mph /  11.7km/h 15mph /  24.1km/h 49.1% 0in /  0.0mm
19:44 75 °F /  23.9 °C 55 °F /  12.8 °C 30in /  1017.2hPa ENE 8.1mph /  13km/h 15mph /  24.1km/h 49.8% 0in /  0.0mm
19:49 74.8 °F /  23.8 °C 54.7 °F /  12.6 °C 30in /  1017.2hPa Este 8.2mph /  13.2km/h 16.1mph /  25.9km/h 49.2% 0in /  0.0mm
19:54 74.7 °F /  23.7 °C 54.3 °F /  12.4 °C 30in /  1017.2hPa Este 8.5mph /  13.7km/h 16mph /  25.7km/h 49.1% 0in /  0.0mm
19:59 74.7 °F /  23.7 °C 54.5 °F /  12.5 °C 30in /  1017.2hPa Este 8.8mph /  14.1km/h 15mph /  24.1km/h 49.6% 0in /  0.0mm
20:04 74.5 °F /  23.6 °C 54.5 °F /  12.5 °C 30in /  1017.3hPa Este 9.2mph /  14.8km/h 15mph /  24.1km/h 49.5% 0in /  0.0mm
20:09 74.5 °F /  23.6 °C 54.3 °F /  12.4 °C 30in /  1017.3hPa ENE 8.7mph /  14km/h 15mph /  24.1km/h 49.3% 0in /  0.0mm
20:14 74.5 °F /  23.6 °C 54.3 °F /  12.4 °C 30in /  1017.3hPa NE 7.6mph /  12.2km/h 13.7mph /  22km/h 49.4% 0in /  0.0mm
20:19 74.5 °F /  23.6 °C 54 °F /  12.2 °C 30in /  1017.3hPa ENE 7.1mph /  11.4km/h 15mph /  24.1km/h 49% 0in /  0.0mm
20:24 74.1 °F /  23.4 °C 54.1 °F /  12.3 °C 30in /  1017.3hPa Este 5.9mph /  9.5km/h 15mph /  24.1km/h 49.7% 0in /  0.0mm
20:29 73.9 °F /  23.3 °C 54.1 °F /  12.3 °C 30in /  1017.3hPa ENE 6.2mph /  10km/h 12.7mph /  20.4km/h 50% 0in /  0.0mm
20:34 73.8 °F /  23.2 °C 54.1 °F /  12.3 °C 30.1in /  1017.6hPa NE 6.9mph /  11.1km/h 13mph /  20.9km/h 50.1% 0in /  0.0mm
20:39 73.8 °F /  23.2 °C 54.3 °F /  12.4 °C 30.1in /  1017.6hPa ENE 6.6mph /  10.6km/h 13.8mph /  22.2km/h 50.7% 0in /  0.0mm
20:44 73.6 °F /  23.1 °C 54.3 °F /  12.4 °C 30.1in /  1017.6hPa NE 5.9mph /  9.5km/h 14mph /  22.5km/h 51% 0in /  0.0mm
20:49 73.6 °F /  23.1 °C 54.3 °F /  12.4 °C 30.1in /  1017.8hPa NE 5.5mph /  8.9km/h 9.2mph /  14.8km/h 51% 0in /  0.0mm
20:54 73.4 °F /  23 °C 54.3 °F /  12.4 °C 30.1in /  1017.8hPa NE 4.7mph /  7.6km/h 9mph /  14.5km/h 51% 0in /  0.0mm
20:59 73.2 °F /  22.9 °C 54.1 °F /  12.3 °C 30.1in /  1017.8hPa ENE 4.5mph /  7.3km/h 8.1mph /  13km/h 51.4% 0in /  0.0mm
21:04 73 °F /  22.8 °C 54.3 °F /  12.4 °C 30.1in /  1018.2hPa ENE 4.3mph /  6.9km/h 8.5mph /  13.7km/h 52% 0in /  0.0mm
21:09 72.9 °F /  22.7 °C 54.1 °F /  12.3 °C 30.1in /  1018.2hPa NE 4.6mph /  7.4km/h 9.2mph /  14.8km/h 52% 0in /  0.0mm
21:14 72.7 °F /  22.6 °C 54 °F /  12.2 °C 30.1in /  1018.2hPa ENE 5.2mph /  8.4km/h 9mph /  14.5km/h 52.1% 0in /  0.0mm
21:19 72.5 °F /  22.5 °C 54.3 °F /  12.4 °C 30.1in /  1018.4hPa ENE 4.9mph /  7.9km/h 7.4mph /  11.9km/h 52.9% 0in /  0.0mm
21:24 72.3 °F /  22.4 °C 54.3 °F /  12.4 °C 30.1in /  1018.4hPa NE 4.3mph /  6.9km/h 7mph /  11.3km/h 53% 0in /  0.0mm
21:29 72.3 °F /  22.4 °C 54.3 °F /  12.4 °C 30.1in /  1018.4hPa NE 4.1mph /  6.6km/h 7mph /  11.3km/h 53.4% 0in /  0.0mm
21:34 72.1 °F /  22.3 °C 54.7 °F /  12.6 °C 30.1in /  1018.7hPa ENE 3.6mph /  5.8km/h 7mph /  11.3km/h 54% 0in /  0.0mm
21:39 72 °F /  22.2 °C 54.5 °F /  12.5 °C 30.1in /  1018.7hPa ENE 3.8mph /  6.1km/h 7mph /  11.3km/h 54% 0in /  0.0mm
21:44 72 °F /  22.2 °C 54.3 °F /  12.4 °C 30.1in /  1018.7hPa ENE 4.3mph /  6.9km/h 7mph /  11.3km/h 54% 0in /  0.0mm
21:49 71.8 °F /  22.1 °C 54.3 °F /  12.4 °C 30.1in /  1018.9hPa ENE 3.9mph /  6.3km/h 6mph /  9.7km/h 54.2% 0in /  0.0mm
21:54 71.8 °F /  22.1 °C 54.5 °F /  12.5 °C 30.1in /  1018.9hPa NE 2.9mph /  4.7km/h 6mph /  9.7km/h 54.7% 0in /  0.0mm
21:59 71.4 °F /  21.9 °C 54.3 °F /  12.4 °C 30.1in /  1018.9hPa NE 3.4mph /  5.4km/h 8.1mph /  13km/h 54.9% 0in /  0.0mm
22:04 71.2 °F /  21.8 °C 54.3 °F /  12.4 °C 30.1in /  1019.1hPa ENE 4mph /  6.5km/h 8mph /  12.9km/h 55% 0in /  0.0mm
22:09 71.2 °F /  21.8 °C 54.1 °F /  12.3 °C 30.1in /  1019.1hPa ENE 4mph /  6.5km/h 8mph /  12.9km/h 55% 0in /  0.0mm
22:14 71.1 °F /  21.7 °C 54.1 °F /  12.3 °C 30.1in /  1019.1hPa ENE 4mph /  6.5km/h 7mph /  11.3km/h 55% 0in /  0.0mm
22:19 71.1 °F /  21.7 °C 54.1 °F /  12.3 °C 30.1in /  1019.4hPa NE 3.7mph /  6km/h 6mph /  9.7km/h 55% 0in /  0.0mm
22:24 70.9 °F /  21.6 °C 54.1 °F /  12.3 °C 30.1in /  1019.4hPa NE 3.1mph /  5km/h 6.9mph /  11.1km/h 55.3% 0in /  0.0mm
22:29 70.9 °F /  21.6 °C 54.3 °F /  12.4 °C 30.1in /  1019.4hPa NE 3.4mph /  5.5km/h 7mph /  11.3km/h 55.9% 0in /  0.0mm
22:34 70.7 °F /  21.5 °C 54.1 °F /  12.3 °C 30.1in /  1019.7hPa NE 4mph /  6.5km/h 8.1mph /  13km/h 56% 0in /  0.0mm
22:39 70.5 °F /  21.4 °C 54.1 °F /  12.3 °C 30.1in /  1019.7hPa NE 4.2mph /  6.8km/h 8mph /  12.9km/h 56.2% 0in /  0.0mm
22:44 70.2 °F /  21.2 °C 54.3 °F /  12.4 °C 30.1in /  1019.7hPa NE 4.7mph /  7.6km/h 7.4mph /  11.9km/h 57% 0in /  0.0mm
22:49 70 °F /  21.1 °C 54.3 °F /  12.4 °C 30.1in /  1019.8hPa NE 4.6mph /  7.4km/h 7mph /  11.3km/h 57.6% 0in /  0.0mm
22:54 70 °F /  21.1 °C 54.5 °F /  12.5 °C 30.1in /  1019.8hPa NE 4.3mph /  6.9km/h 6.9mph /  11.1km/h 58% 0in /  0.0mm
22:59 69.8 °F /  21 °C 54.3 °F /  12.4 °C 30.1in /  1019.8hPa NE 4.2mph /  6.7km/h 7mph /  11.3km/h 58% 0in /  0.0mm
23:04 69.8 °F /  21 °C 54.7 °F /  12.6 °C 30.1in /  1020.1hPa NNE 4mph /  6.5km/h 6mph /  9.7km/h 58.7% 0in /  0.0mm
23:09 69.8 °F /  21 °C 54.7 °F /  12.6 °C 30.1in /  1020.1hPa NE 3.6mph /  5.8km/h 5.2mph /  8.4km/h 59% 0in /  0.0mm
23:14 69.6 °F /  20.9 °C 54.7 °F /  12.6 °C 30.1in /  1020.1hPa NE 2.9mph /  4.6km/h 5mph /  8km/h 59% 0in /  0.0mm
23:19 69.8 °F /  21 °C 54.9 °F /  12.7 °C 30.1in /  1020.2hPa NE 2.4mph /  3.9km/h 3mph /  4.8km/h 59% 0in /  0.0mm
23:24 69.8 °F /  21 °C 54.9 °F /  12.7 °C 30.1in /  1020.2hPa NE 1.4mph /  2.2km/h 2.9mph /  4.7km/h 59% 0in /  0.0mm
23:29 70 °F /  21.1 °C 55 °F /  12.8 °C 30.1in /  1020.2hPa NNE 1.4mph /  2.2km/h 3.6mph /  5.8km/h 59% 0in /  0.0mm
23:34 70 °F /  21.1 °C 55 °F /  12.8 °C 30.1in /  1020.2hPa NNO 1.4mph /  2.2km/h 4mph /  6.4km/h 59% 0in /  0.0mm
23:39 69.8 °F /  21 °C 54.9 °F /  12.7 °C 30.1in /  1020.2hPa NNO 1.5mph /  2.4km/h 4mph /  6.4km/h 59% 0in /  0.0mm
23:44 69.6 °F /  20.9 °C 54.7 °F /  12.6 °C 30.1in /  1020.2hPa NNO 1.8mph /  2.9km/h 3mph /  4.8km/h 59% 0in /  0.0mm
23:49 69.6 °F /  20.9 °C 54.7 °F /  12.6 °C 30.1in /  1020.2hPa NNO 1.2mph /  2km/h 4.3mph /  6.9km/h 59% 0in /  0.0mm
23:54 69.6 °F /  20.9 °C 54.5 °F /  12.5 °C 30.1in /  1020.2hPa Calm   6.2mph /  10km/h 58.8% 0in /  0.0mm
23:59 69.4 °F /  20.8 °C 54.3 °F /  12.4 °C 30.1in /  1020.2hPa North 0.9mph /  1.4km/h 6mph /  9.7km/h 58.6% 0in /  0.0mm
Murcia-Puente Tocinos, España
Compliments of Weather Underground - 3 mb

La estación de MeteoMurcia.com, publica sus datos en los siguientes proyectos:

Weather Underground PWS IMURCIAP2 Meteoclimatic www.awekas.at

W3Counter
Web Analytics